sensor_id;sensor_type;location;lat;lon;timestamp;pressure;altitude;pressure_sealevel;temperature;humidity
64876;BME280;51369;49.862;9.908;2023-03-19T00:01:06;97987.63;;;9.99;71.54
64876;BME280;51369;49.862;9.908;2023-03-19T00:03:33;97990.59;;;9.93;71.98
64876;BME280;51369;49.862;9.908;2023-03-19T00:05:58;97984.63;;;9.86;71.43
64876;BME280;51369;49.862;9.908;2023-03-19T00:08:24;97997.59;;;9.78;71.66
64876;BME280;51369;49.862;9.908;2023-03-19T00:10:50;97999.75;;;9.70;71.47
64876;BME280;51369;49.862;9.908;2023-03-19T00:13:16;97992.22;;;9.58;70.68
64876;BME280;51369;49.862;9.908;2023-03-19T00:15:41;97997.13;;;9.48;71.82
64876;BME280;51369;49.862;9.908;2023-03-19T00:18:07;97990.34;;;9.39;72.00
64876;BME280;51369;49.862;9.908;2023-03-19T00:20:33;97991.41;;;9.35;72.66
64876;BME280;51369;49.862;9.908;2023-03-19T00:22:58;97992.50;;;9.31;72.60
64876;BME280;51369;49.862;9.908;2023-03-19T00:25:23;97988.97;;;9.29;72.61
64876;BME280;51369;49.862;9.908;2023-03-19T00:27:49;97986.22;;;9.31;73.04
64876;BME280;51369;49.862;9.908;2023-03-19T00:30:15;97994.38;;;9.29;72.66
64876;BME280;51369;49.862;9.908;2023-03-19T00:32:40;97995.38;;;9.27;72.87
64876;BME280;51369;49.862;9.908;2023-03-19T00:35:06;97999.22;;;9.21;73.00
64876;BME280;51369;49.862;9.908;2023-03-19T00:37:34;98000.34;;;9.16;73.58
64876;BME280;51369;49.862;9.908;2023-03-19T00:39:59;98001.38;;;9.13;72.95
64876;BME280;51369;49.862;9.908;2023-03-19T00:42:25;98005.13;;;9.09;73.54
64876;BME280;51369;49.862;9.908;2023-03-19T00:44:51;98014.28;;;9.05;73.38
64876;BME280;51369;49.862;9.908;2023-03-19T00:47:16;98007.41;;;8.98;72.40
64876;BME280;51369;49.862;9.908;2023-03-19T00:49:42;98012.16;;;8.91;72.23
64876;BME280;51369;49.862;9.908;2023-03-19T00:52:07;98006.16;;;8.85;73.45
64876;BME280;51369;49.862;9.908;2023-03-19T00:54:33;98008.16;;;8.79;73.79
64876;BME280;51369;49.862;9.908;2023-03-19T00:56:59;98002.03;;;8.76;73.52
64876;BME280;51369;49.862;9.908;2023-03-19T00:59:25;98005.38;;;8.61;73.47
64876;BME280;51369;49.862;9.908;2023-03-19T01:01:51;98004.06;;;8.49;73.96
64876;BME280;51369;49.862;9.908;2023-03-19T01:04:16;97998.75;;;8.47;73.67
64876;BME280;51369;49.862;9.908;2023-03-19T01:06:42;98007.69;;;8.48;73.78
64876;BME280;51369;49.862;9.908;2023-03-19T01:09:09;97997.94;;;8.45;74.52
64876;BME280;51369;49.862;9.908;2023-03-19T01:11:35;98006.13;;;8.42;73.81
64876;BME280;51369;49.862;9.908;2023-03-19T01:14:00;98006.19;;;8.41;74.63
64876;BME280;51369;49.862;9.908;2023-03-19T01:16:27;98017.00;;;8.39;74.14
64876;BME280;51369;49.862;9.908;2023-03-19T01:18:53;98013.44;;;8.39;73.50
64876;BME280;51369;49.862;9.908;2023-03-19T01:21:19;98025.19;;;8.36;74.01
64876;BME280;51369;49.862;9.908;2023-03-19T01:23:47;98020.03;;;8.30;74.02
64876;BME280;51369;49.862;9.908;2023-03-19T01:26:14;98020.28;;;8.24;73.93
64876;BME280;51369;49.862;9.908;2023-03-19T01:28:40;98017.75;;;8.20;74.60
64876;BME280;51369;49.862;9.908;2023-03-19T01:31:07;98017.00;;;8.16;74.75
64876;BME280;51369;49.862;9.908;2023-03-19T01:33:53;98021.56;;;8.14;74.43
64876;BME280;51369;49.862;9.908;2023-03-19T01:36:40;98026.19;;;8.10;74.89
64876;BME280;51369;49.862;9.908;2023-03-19T01:39:07;98020.09;;;8.05;74.97
64876;BME280;51369;49.862;9.908;2023-03-19T01:41:32;98019.34;;;8.02;74.97
64876;BME280;51369;49.862;9.908;2023-03-19T01:44:28;98016.84;;;7.97;75.61
64876;BME280;51369;49.862;9.908;2023-03-19T01:50:27;98029.44;;;7.95;75.26
64876;BME280;51369;49.862;9.908;2023-03-19T01:53:16;98018.81;;;7.92;75.19
64876;BME280;51369;49.862;9.908;2023-03-19T01:56:33;98019.81;;;7.90;76.18
64876;BME280;51369;49.862;9.908;2023-03-19T01:59:30;98018.69;;;7.95;77.09
64876;BME280;51369;49.862;9.908;2023-03-19T02:02:22;98025.72;;;7.99;76.48
64876;BME280;51369;49.862;9.908;2023-03-19T02:04:51;98024.03;;;7.97;76.01
64876;BME280;51369;49.862;9.908;2023-03-19T02:07:18;98021.44;;;7.94;75.71
64876;BME280;51369;49.862;9.908;2023-03-19T02:09:44;98022.44;;;7.91;75.03
64876;BME280;51369;49.862;9.908;2023-03-19T02:12:11;98030.56;;;7.90;74.84
64876;BME280;51369;49.862;9.908;2023-03-19T02:14:37;98027.88;;;7.90;75.71
64876;BME280;51369;49.862;9.908;2023-03-19T02:17:02;98035.06;;;7.89;75.36
64876;BME280;51369;49.862;9.908;2023-03-19T02:19:39;98025.25;;;7.88;75.60
64876;BME280;51369;49.862;9.908;2023-03-19T02:22:09;98021.69;;;7.88;75.56
64876;BME280;51369;49.862;9.908;2023-03-19T02:24:38;98020.84;;;7.86;75.48
64876;BME280;51369;49.862;9.908;2023-03-19T02:27:12;98029.84;;;7.84;75.20
64876;BME280;51369;49.862;9.908;2023-03-19T02:29:41;98027.16;;;7.84;75.38
64876;BME280;51369;49.862;9.908;2023-03-19T02:32:07;98030.69;;;7.87;75.79
64876;BME280;51369;49.862;9.908;2023-03-19T02:34:39;98024.41;;;7.86;75.61
64876;BME280;51369;49.862;9.908;2023-03-19T02:37:16;98030.56;;;7.90;76.46
64876;BME280;51369;49.862;9.908;2023-03-19T02:42:16;98026.47;;;8.03;76.60
64876;BME280;51369;49.862;9.908;2023-03-19T02:44:43;98023.72;;;8.04;76.31
64876;BME280;51369;49.862;9.908;2023-03-19T02:47:08;98028.06;;;8.08;76.12
64876;BME280;51369;49.862;9.908;2023-03-19T02:49:34;98032.38;;;8.12;75.83
64876;BME280;51369;49.862;9.908;2023-03-19T02:52:00;98028.75;;;8.13;75.82
64876;BME280;51369;49.862;9.908;2023-03-19T02:54:26;98030.38;;;8.18;76.11
64876;BME280;51369;49.862;9.908;2023-03-19T02:56:51;98025.00;;;8.18;76.30
64876;BME280;51369;49.862;9.908;2023-03-19T02:59:17;98031.09;;;8.23;76.50
64876;BME280;51369;49.862;9.908;2023-03-19T03:01:43;98031.97;;;8.23;75.76
64876;BME280;51369;49.862;9.908;2023-03-19T03:04:08;98029.28;;;8.23;76.41
64876;BME280;51369;49.862;9.908;2023-03-19T03:06:34;98036.34;;;8.26;76.06
64876;BME280;51369;49.862;9.908;2023-03-19T03:09:00;98043.41;;;8.28;76.04
64876;BME280;51369;49.862;9.908;2023-03-19T03:11:26;98042.47;;;8.29;76.47
64876;BME280;51369;49.862;9.908;2023-03-19T03:13:51;98038.03;;;8.28;75.97
64876;BME280;51369;49.862;9.908;2023-03-19T03:16:17;98036.16;;;8.30;76.35
64876;BME280;51369;49.862;9.908;2023-03-19T03:18:42;98035.22;;;8.31;77.13
64876;BME280;51369;49.862;9.908;2023-03-19T03:21:07;98033.41;;;8.33;76.77
64876;BME280;51369;49.862;9.908;2023-03-19T03:23:34;98029.78;;;8.34;76.86
64876;BME280;51369;49.862;9.908;2023-03-19T03:26:01;98027.91;;;8.36;77.04
64876;BME280;51369;49.862;9.908;2023-03-19T03:28:28;98039.41;;;8.40;77.21
64876;BME280;51369;49.862;9.908;2023-03-19T03:31:00;98035.78;;;8.41;77.57
64876;BME280;51369;49.862;9.908;2023-03-19T03:33:26;98037.47;;;8.43;78.02
64876;BME280;51369;49.862;9.908;2023-03-19T03:35:52;98039.16;;;8.46;77.54
64876;BME280;51369;49.862;9.908;2023-03-19T03:38:17;98041.91;;;8.44;77.21
64876;BME280;51369;49.862;9.908;2023-03-19T03:40:43;98039.34;;;8.41;77.83
64876;BME280;51369;49.862;9.908;2023-03-19T03:43:08;98052.69;;;8.44;78.00
64876;BME280;51369;49.862;9.908;2023-03-19T03:45:35;98051.75;;;8.45;77.07
64876;BME280;51369;49.862;9.908;2023-03-19T03:48:02;98060.75;;;8.44;77.25
64876;BME280;51369;49.862;9.908;2023-03-19T03:50:28;98066.19;;;8.43;77.22
64876;BME280;51369;49.862;9.908;2023-03-19T03:52:56;98060.75;;;8.44;77.31
64876;BME280;51369;49.862;9.908;2023-03-19T03:55:22;98078.59;;;8.47;77.87
64876;BME280;51369;49.862;9.908;2023-03-19T03:57:48;98069.63;;;8.46;78.50
64876;BME280;51369;49.862;9.908;2023-03-19T04:00:13;98082.97;;;8.50;78.47
64876;BME280;51369;49.862;9.908;2023-03-19T04:02:39;98073.91;;;8.52;78.75
64876;BME280;51369;49.862;9.908;2023-03-19T04:05:05;98071.03;;;8.57;78.92
64876;BME280;51369;49.862;9.908;2023-03-19T04:07:31;98061.78;;;8.64;80.57
64876;BME280;51369;49.862;9.908;2023-03-19T04:09:57;98077.59;;;8.71;80.68
64876;BME280;51369;49.862;9.908;2023-03-19T04:12:23;98082.84;;;8.74;80.49
64876;BME280;51369;49.862;9.908;2023-03-19T04:14:48;98090.03;;;8.74;80.23
64876;BME280;51369;49.862;9.908;2023-03-19T04:17:14;98077.59;;;8.71;79.97
64876;BME280;51369;49.862;9.908;2023-03-19T04:19:39;98074.06;;;8.69;80.55
64876;BME280;51369;49.862;9.908;2023-03-19T04:22:05;98080.28;;;8.71;80.68
64876;BME280;51369;49.862;9.908;2023-03-19T04:24:32;98071.16;;;8.75;81.17
64876;BME280;51369;49.862;9.908;2023-03-19T04:26:58;98070.06;;;8.79;80.90
64876;BME280;51369;49.862;9.908;2023-03-19T04:29:24;98065.44;;;8.83;81.66
64876;BME280;51369;49.862;9.908;2023-03-19T04:31:50;98062.63;;;8.86;81.83
64876;BME280;51369;49.862;9.908;2023-03-19T04:34:16;98071.47;;;8.90;81.53
64876;BME280;51369;49.862;9.908;2023-03-19T04:36:42;98075.97;;;8.89;80.71
64876;BME280;51369;49.862;9.908;2023-03-19T04:39:08;98073.47;;;8.85;81.15
64876;BME280;51369;49.862;9.908;2023-03-19T04:41:34;98089.69;;;8.83;80.00
64876;BME280;51369;49.862;9.908;2023-03-19T04:44:18;98081.66;;;8.81;80.44
64876;BME280;51369;49.862;9.908;2023-03-19T04:46:43;98096.06;;;8.80;79.71
64876;BME280;51369;49.862;9.908;2023-03-19T04:49:12;98089.91;;;8.77;80.00
64876;BME280;51369;49.862;9.908;2023-03-19T04:51:38;98087.28;;;8.75;79.99
64876;BME280;51369;49.862;9.908;2023-03-19T04:54:04;98088.16;;;8.76;79.98
64876;BME280;51369;49.862;9.908;2023-03-19T04:56:31;98099.81;;;8.76;80.14
64876;BME280;51369;49.862;9.908;2023-03-19T04:58:56;98105.19;;;8.76;79.88
64876;BME280;51369;49.862;9.908;2023-03-19T05:01:22;98105.13;;;8.78;80.68
64876;BME280;51369;49.862;9.908;2023-03-19T05:03:58;98105.13;;;8.78;80.67
64876;BME280;51369;49.862;9.908;2023-03-19T05:06:24;98109.53;;;8.80;80.11
64876;BME280;51369;49.862;9.908;2023-03-19T05:08:51;98107.72;;;8.81;79.95
64876;BME280;51369;49.862;9.908;2023-03-19T05:11:18;98115.72;;;8.82;80.52
64876;BME280;51369;49.862;9.908;2023-03-19T05:13:58;98120.97;;;8.86;81.02
64876;BME280;51369;49.862;9.908;2023-03-19T05:16:30;98129.00;;;8.87;80.24
64876;BME280;51369;49.862;9.908;2023-03-19T05:18:55;98127.13;;;8.89;80.23
64876;BME280;51369;49.862;9.908;2023-03-19T05:21:20;98131.50;;;8.92;81.14
64876;BME280;51369;49.862;9.908;2023-03-19T05:23:46;98138.47;;;8.97;80.88
64876;BME280;51369;49.862;9.908;2023-03-19T05:26:17;98141.78;;;9.04;81.48
64876;BME280;51369;49.862;9.908;2023-03-19T05:29:05;98142.41;;;9.10;81.10
64876;BME280;51369;49.862;9.908;2023-03-19T05:31:42;98153.69;;;9.20;81.26
64876;BME280;51369;49.862;9.908;2023-03-19T05:34:08;98154.31;;;9.27;81.16
64876;BME280;51369;49.862;9.908;2023-03-19T05:36:34;98158.50;;;9.34;80.72
64876;BME280;51369;49.862;9.908;2023-03-19T05:39:25;98161.78;;;9.42;81.13
64876;BME280;51369;49.862;9.908;2023-03-19T05:41:51;98158.81;;;9.48;80.22
64876;BME280;51369;49.862;9.908;2023-03-19T05:44:21;98161.31;;;9.53;80.75
64876;BME280;51369;49.862;9.908;2023-03-19T05:46:56;98161.06;;;9.59;80.51
64876;BME280;51369;49.862;9.908;2023-03-19T05:49:25;98159.06;;;9.64;80.33
64876;BME280;51369;49.862;9.908;2023-03-19T05:51:50;98154.41;;;9.67;80.81
64876;BME280;51369;49.862;9.908;2023-03-19T05:54:16;98160.53;;;9.71;80.26
64876;BME280;51369;49.862;9.908;2023-03-19T05:56:51;98149.63;;;9.74;80.47
64876;BME280;51369;49.862;9.908;2023-03-19T05:59:33;98154.84;;;9.78;80.47
64876;BME280;51369;49.862;9.908;2023-03-19T06:02:14;98158.34;;;9.81;80.68
64876;BME280;51369;49.862;9.908;2023-03-19T06:04:39;98158.19;;;9.84;80.22
64876;BME280;51369;49.862;9.908;2023-03-19T06:07:05;98156.31;;;9.86;80.60
64876;BME280;51369;49.862;9.908;2023-03-19T06:09:33;98162.53;;;9.88;79.65
64876;BME280;51369;49.862;9.908;2023-03-19T06:11:59;98162.53;;;9.88;79.46
64876;BME280;51369;49.862;9.908;2023-03-19T06:14:43;98165.09;;;9.91;80.18
64876;BME280;51369;49.862;9.908;2023-03-19T06:17:31;98162.31;;;9.92;79.78
64876;BME280;51369;49.862;9.908;2023-03-19T06:20:02;98173.91;;;9.94;80.01
64876;BME280;51369;49.862;9.908;2023-03-19T06:22:28;98177.44;;;9.96;79.46
64876;BME280;51369;49.862;9.908;2023-03-19T06:24:54;98170.16;;;9.98;80.26
64876;BME280;51369;49.862;9.908;2023-03-19T06:27:19;98177.28;;;9.99;80.26
64876;BME280;51369;49.862;9.908;2023-03-19T06:29:45;98182.56;;;10.02;79.51
64876;BME280;51369;49.862;9.908;2023-03-19T06:32:17;98177.03;;;10.05;79.80
64876;BME280;51369;49.862;9.908;2023-03-19T06:34:42;98181.34;;;10.09;80.29
64876;BME280;51369;49.862;9.908;2023-03-19T06:37:08;98185.72;;;10.12;79.96
64876;BME280;51369;49.862;9.908;2023-03-19T06:39:33;98187.34;;;10.16;80.63
64876;BME280;51369;49.862;9.908;2023-03-19T06:41:59;98184.50;;;10.19;79.96
64876;BME280;51369;49.862;9.908;2023-03-19T06:44:25;98198.72;;;10.24;80.97
64876;BME280;51369;49.862;9.908;2023-03-19T06:46:50;98207.53;;;10.28;81.01
64876;BME280;51369;49.862;9.908;2023-03-19T06:49:16;98218.28;;;10.29;80.92
64876;BME280;51369;49.862;9.908;2023-03-19T06:51:42;98221.03;;;10.28;80.71
64876;BME280;51369;49.862;9.908;2023-03-19T06:54:07;98215.84;;;10.23;80.43
64876;BME280;51369;49.862;9.908;2023-03-19T06:56:33;98219.66;;;10.18;81.12
64876;BME280;51369;49.862;9.908;2023-03-19T06:58:58;98219.66;;;10.18;81.39
64876;BME280;51369;49.862;9.908;2023-03-19T07:01:24;98216.06;;;10.17;81.15
64876;BME280;51369;49.862;9.908;2023-03-19T07:03:49;98220.50;;;10.20;81.55
64876;BME280;51369;49.862;9.908;2023-03-19T07:06:14;98219.41;;;10.24;82.33
64876;BME280;51369;49.862;9.908;2023-03-19T07:08:40;98221.84;;;10.30;82.39
64876;BME280;51369;49.862;9.908;2023-03-19T07:11:11;98220.63;;;10.37;82.33
64876;BME280;51369;49.862;9.908;2023-03-19T07:13:37;98215.75;;;10.45;82.95
64876;BME280;51369;49.862;9.908;2023-03-19T07:16:02;98219.84;;;10.54;83.02
64876;BME280;51369;49.862;9.908;2023-03-19T07:18:28;98223.09;;;10.62;83.65
64876;BME280;51369;49.862;9.908;2023-03-19T07:20:53;98225.38;;;10.71;83.65
64876;BME280;51369;49.862;9.908;2023-03-19T07:23:19;98236.63;;;10.81;83.81
64876;BME280;51369;49.862;9.908;2023-03-19T07:25:44;98228.97;;;10.90;84.24
64876;BME280;51369;49.862;9.908;2023-03-19T07:28:11;98233.06;;;10.99;83.64
64876;BME280;51369;49.862;9.908;2023-03-19T07:30:36;98227.38;;;11.05;84.23
64876;BME280;51369;49.862;9.908;2023-03-19T07:33:03;98232.34;;;11.14;84.34
64876;BME280;51369;49.862;9.908;2023-03-19T07:35:28;98235.56;;;11.22;83.28
64876;BME280;51369;49.862;9.908;2023-03-19T07:37:54;98229.78;;;11.30;83.25
64876;BME280;51369;49.862;9.908;2023-03-19T07:40:20;98233.97;;;11.37;84.01
64876;BME280;51369;49.862;9.908;2023-03-19T07:42:45;98237.31;;;11.42;83.76
64876;BME280;51369;49.862;9.908;2023-03-19T07:45:11;98240.66;;;11.47;83.02
64876;BME280;51369;49.862;9.908;2023-03-19T07:47:37;98235.13;;;11.50;83.35
64876;BME280;51369;49.862;9.908;2023-03-19T07:50:04;98234.97;;;11.53;82.41
64876;BME280;51369;49.862;9.908;2023-03-19T07:52:30;98236.56;;;11.57;82.53
64876;BME280;51369;49.862;9.908;2023-03-19T07:54:55;98244.38;;;11.63;82.48
64876;BME280;51369;49.862;9.908;2023-03-19T07:57:20;98231.50;;;11.68;82.08
64876;BME280;51369;49.862;9.908;2023-03-19T07:59:46;98241.16;;;11.74;81.62
64876;BME280;51369;49.862;9.908;2023-03-19T08:02:12;98247.16;;;11.81;81.46
64876;BME280;51369;49.862;9.908;2023-03-19T08:04:38;98251.41;;;11.86;82.01
64876;BME280;51369;49.862;9.908;2023-03-19T08:07:04;98247.50;;;11.92;82.19
64876;BME280;51369;49.862;9.908;2023-03-19T08:09:29;98257.06;;;11.99;81.73
64876;BME280;51369;49.862;9.908;2023-03-19T08:11:55;98259.25;;;12.10;82.17
64876;BME280;51369;49.862;9.908;2023-03-19T08:14:20;98253.41;;;12.17;82.08
64876;BME280;51369;49.862;9.908;2023-03-19T08:16:47;98252.22;;;12.23;82.22
64876;BME280;51369;49.862;9.908;2023-03-19T08:19:13;98258.19;;;12.29;80.85
64876;BME280;51369;49.862;9.908;2023-03-19T08:21:39;98261.63;;;12.33;80.64
64876;BME280;51369;49.862;9.908;2023-03-19T08:24:05;98256.84;;;12.38;79.96
64876;BME280;51369;49.862;9.908;2023-03-19T08:26:31;98265.69;;;12.42;79.93
64876;BME280;51369;49.862;9.908;2023-03-19T08:28:58;98264.63;;;12.44;79.74
64876;BME280;51369;49.862;9.908;2023-03-19T08:31:23;98266.31;;;12.47;80.16
64876;BME280;51369;49.862;9.908;2023-03-19T08:33:49;98268.94;;;12.48;80.06
64876;BME280;51369;49.862;9.908;2023-03-19T08:36:15;98270.63;;;12.51;79.45
64876;BME280;51369;49.862;9.908;2023-03-19T08:38:41;98273.09;;;12.55;78.58
64876;BME280;51369;49.862;9.908;2023-03-19T08:41:07;98269.97;;;12.63;78.64
64876;BME280;51369;49.862;9.908;2023-03-19T08:43:34;98269.56;;;12.70;78.31
64876;BME280;51369;49.862;9.908;2023-03-19T08:46:01;98269.16;;;12.78;78.36
64876;BME280;51369;49.862;9.908;2023-03-19T08:48:27;98274.25;;;12.84;77.75
64876;BME280;51369;49.862;9.908;2023-03-19T08:50:54;98274.63;;;12.94;78.34
64876;BME280;51369;49.862;9.908;2023-03-19T08:53:21;98275.91;;;13.04;77.98
64876;BME280;51369;49.862;9.908;2023-03-19T08:55:54;98279.94;;;13.13;78.00
64876;BME280;51369;49.862;9.908;2023-03-19T08:58:21;98286.72;;;13.21;77.42
64876;BME280;51369;49.862;9.908;2023-03-19T09:00:46;98272.84;;;13.27;76.86
64876;BME280;51369;49.862;9.908;2023-03-19T09:03:12;98274.34;;;13.33;76.28
64876;BME280;51369;49.862;9.908;2023-03-19T09:05:37;98279.41;;;13.39;76.46
64876;BME280;51369;49.862;9.908;2023-03-19T09:08:03;98288.97;;;13.46;76.33
64876;BME280;51369;49.862;9.908;2023-03-19T09:10:28;98292.13;;;13.54;76.60
64876;BME280;51369;49.862;9.908;2023-03-19T09:12:53;98294.31;;;13.63;77.16
64876;BME280;51369;49.862;9.908;2023-03-19T09:15:19;98286.72;;;13.70;76.52
64876;BME280;51369;49.862;9.908;2023-03-19T09:17:45;98282.69;;;13.77;76.44
64876;BME280;51369;49.862;9.908;2023-03-19T09:20:10;98279.53;;;13.85;76.02
64876;BME280;51369;49.862;9.908;2023-03-19T09:22:36;98280.91;;;13.92;75.30
64876;BME280;51369;49.862;9.908;2023-03-19T09:25:01;98290.44;;;13.99;75.08
64876;BME280;51369;49.862;9.908;2023-03-19T09:27:27;98285.63;;;14.04;75.00
64876;BME280;51369;49.862;9.908;2023-03-19T09:29:53;98276.16;;;14.11;74.70
64876;BME280;51369;49.862;9.908;2023-03-19T09:32:18;98280.34;;;14.17;74.14
64876;BME280;51369;49.862;9.908;2023-03-19T09:34:44;98276.31;;;14.24;74.35
64876;BME280;51369;49.862;9.908;2023-03-19T09:37:10;98287.59;;;14.32;74.01
64876;BME280;51369;49.862;9.908;2023-03-19T09:39:36;98286.25;;;14.39;73.61
64876;BME280;51369;49.862;9.908;2023-03-19T09:42:13;98284.88;;;14.48;73.87
64876;BME280;51369;49.862;9.908;2023-03-19T09:44:42;98285.88;;;14.61;73.87
64876;BME280;51369;49.862;9.908;2023-03-19T09:47:32;98279.91;;;14.70;73.66
64876;BME280;51369;49.862;9.908;2023-03-19T09:50:01;98286.25;;;14.85;73.78
64876;BME280;51369;49.862;9.908;2023-03-19T09:52:48;98279.16;;;14.96;72.97
64876;BME280;51369;49.862;9.908;2023-03-19T09:57:43;98279.38;;;15.22;72.77
64876;BME280;51369;49.862;9.908;2023-03-19T10:00:29;98280.75;;;15.29;72.56
64876;BME280;51369;49.862;9.908;2023-03-19T10:03:11;98275.69;;;15.37;72.42
64876;BME280;51369;49.862;9.908;2023-03-19T10:08:55;98280.78;;;15.57;72.00
64876;BME280;51369;49.862;9.908;2023-03-19T10:17:21;98283.44;;;16.13;70.57
64876;BME280;51369;49.862;9.908;2023-03-19T10:20:07;98283.59;;;16.24;69.82
64876;BME280;51369;49.862;9.908;2023-03-19T10:22:38;98287.34;;;16.36;69.15
64876;BME280;51369;49.862;9.908;2023-03-19T10:25:09;98282.81;;;16.49;69.83
64876;BME280;51369;49.862;9.908;2023-03-19T10:27:37;98278.28;;;16.62;69.44
64876;BME280;51369;49.862;9.908;2023-03-19T10:30:12;98278.22;;;16.76;69.33
64876;BME280;51369;49.862;9.908;2023-03-19T10:32:50;98269.97;;;16.90;68.17
64876;BME280;51369;49.862;9.908;2023-03-19T10:35:25;98272.72;;;17.03;67.47
64876;BME280;51369;49.862;9.908;2023-03-19T10:37:55;98278.38;;;17.13;67.04
64876;BME280;51369;49.862;9.908;2023-03-19T10:40:38;98275.13;;;17.20;66.77
64876;BME280;51369;49.862;9.908;2023-03-19T10:43:17;98269.88;;;17.30;66.09
64876;BME280;51369;49.862;9.908;2023-03-19T10:45:45;98270.72;;;17.43;66.49
64876;BME280;51369;49.862;9.908;2023-03-19T10:48:15;98262.38;;;17.57;66.18
64876;BME280;51369;49.862;9.908;2023-03-19T10:50:47;98264.16;;;17.71;65.01
64876;BME280;51369;49.862;9.908;2023-03-19T10:58:33;98254.47;;;17.91;63.54
64876;BME280;51369;49.862;9.908;2023-03-19T11:01:08;98258.31;;;17.88;62.13
64876;BME280;51369;49.862;9.908;2023-03-19T11:03:49;98254.03;;;17.97;61.44
64876;BME280;51369;49.862;9.908;2023-03-19T11:06:18;98247.66;;;18.09;60.32
64876;BME280;51369;49.862;9.908;2023-03-19T11:11:34;98241.06;;;18.36;59.16
64876;BME280;51369;49.862;9.908;2023-03-19T11:19:52;98241.75;;;18.74;58.32
64876;BME280;51369;49.862;9.908;2023-03-19T11:22:33;98241.16;;;18.82;57.10
64876;BME280;51369;49.862;9.908;2023-03-19T11:25:46;98238.09;;;18.98;57.71
64876;BME280;51369;49.862;9.908;2023-03-19T11:28:06;98234.34;;;19.10;56.92
64876;BME280;51369;49.862;9.908;2023-03-19T11:30:45;98226.53;;;19.16;57.21
64876;BME280;51369;49.862;9.908;2023-03-19T11:33:36;98219.94;;;19.30;57.32
64876;BME280;51369;49.862;9.908;2023-03-19T11:36:23;98222.69;;;19.41;55.84
64876;BME280;51369;49.862;9.908;2023-03-19T11:49:44;98211.50;;;19.56;53.13
64876;BME280;51369;49.862;9.908;2023-03-19T11:52:34;98210.00;;;19.40;53.89
64876;BME280;51369;49.862;9.908;2023-03-19T11:55:20;98203.88;;;19.26;54.50
64876;BME280;51369;49.862;9.908;2023-03-19T12:00:51;98194.81;;;19.25;55.07
64876;BME280;51369;49.862;9.908;2023-03-19T12:14:16;98178.88;;;19.41;53.80
64876;BME280;51369;49.862;9.908;2023-03-19T12:22:22;98183.34;;;19.31;53.52
64876;BME280;51369;49.862;9.908;2023-03-19T12:25:16;98178.13;;;19.28;53.42
64876;BME280;51369;49.862;9.908;2023-03-19T12:28:00;98176.00;;;19.32;53.25
64876;BME280;51369;49.862;9.908;2023-03-19T12:30:35;98166.94;;;19.42;53.43
64876;BME280;51369;49.862;9.908;2023-03-19T12:35:37;98169.78;;;19.74;53.15
64876;BME280;51369;49.862;9.908;2023-03-19T12:40:58;98161.34;;;20.09;52.96
64876;BME280;51369;49.862;9.908;2023-03-19T12:46:22;98159.69;;;20.50;51.45
64876;BME280;51369;49.862;9.908;2023-03-19T12:48:53;98167.25;;;20.58;51.31
64876;BME280;51369;49.862;9.908;2023-03-19T12:51:24;98153.63;;;20.67;50.99
64876;BME280;51369;49.862;9.908;2023-03-19T12:53:55;98148.13;;;20.67;50.88
64876;BME280;51369;49.862;9.908;2023-03-19T12:59:15;98146.84;;;20.71;48.90
64876;BME280;51369;49.862;9.908;2023-03-19T13:01:48;98147.53;;;20.64;50.79
64876;BME280;51369;49.862;9.908;2023-03-19T13:04:23;98146.00;;;20.50;50.69
64876;BME280;51369;49.862;9.908;2023-03-19T13:07:11;98142.53;;;20.37;49.78
64876;BME280;51369;49.862;9.908;2023-03-19T13:09:48;98138.31;;;20.33;50.65
64876;BME280;51369;49.862;9.908;2023-03-19T13:12:21;98143.81;;;20.33;50.57
64876;BME280;51369;49.862;9.908;2023-03-19T13:19:50;98149.81;;;20.27;50.41
64876;BME280;51369;49.862;9.908;2023-03-19T13:22:31;98149.81;;;20.27;50.99
64876;BME280;51369;49.862;9.908;2023-03-19T13:24:59;98141.44;;;20.28;50.63
64876;BME280;51369;49.862;9.908;2023-03-19T13:27:28;98140.25;;;20.21;50.29
64876;BME280;51369;49.862;9.908;2023-03-19T13:30:05;98137.53;;;20.10;50.69
64876;BME280;51369;49.862;9.908;2023-03-19T13:32:35;98131.72;;;20.03;50.88
64876;BME280;51369;49.862;9.908;2023-03-19T13:35:29;98126.75;;;19.97;50.21
64876;BME280;51369;49.862;9.908;2023-03-19T13:37:59;98127.72;;;20.07;51.23
64876;BME280;51369;49.862;9.908;2023-03-19T13:53:57;98120.38;;;20.61;48.94
64876;BME280;51369;49.862;9.908;2023-03-19T13:56:31;98118.50;;;20.61;49.60
64876;BME280;51369;49.862;9.908;2023-03-19T13:59:26;98120.63;;;20.58;48.73
64876;BME280;51369;49.862;9.908;2023-03-19T14:01:53;98118.16;;;20.55;48.32
64876;BME280;51369;49.862;9.908;2023-03-19T14:06:52;98113.41;;;20.57;48.54
64876;BME280;51369;49.862;9.908;2023-03-19T14:09:39;98113.53;;;20.55;48.70
64876;BME280;51369;49.862;9.908;2023-03-19T14:12:09;98115.41;;;20.55;48.41
64876;BME280;51369;49.862;9.908;2023-03-19T14:14:44;98099.63;;;20.47;48.47
64876;BME280;51369;49.862;9.908;2023-03-19T14:17:18;98110.00;;;20.43;48.48
64876;BME280;51369;49.862;9.908;2023-03-19T14:19:45;98107.84;;;20.47;48.32
64876;BME280;51369;49.862;9.908;2023-03-19T14:22:32;98099.44;;;20.39;47.16
64876;BME280;51369;49.862;9.908;2023-03-19T14:25:17;98108.28;;;20.31;48.24
64876;BME280;51369;49.862;9.908;2023-03-19T14:27:46;98111.81;;;20.22;48.64
64876;BME280;51369;49.862;9.908;2023-03-19T14:32:41;98100.88;;;19.90;48.78
64876;BME280;51369;49.862;9.908;2023-03-19T14:35:16;98104.03;;;19.74;48.36
64876;BME280;51369;49.862;9.908;2023-03-19T14:37:49;98102.47;;;19.61;48.65
64876;BME280;51369;49.862;9.908;2023-03-19T14:40:25;98108.69;;;19.52;49.32
64876;BME280;51369;49.862;9.908;2023-03-19T14:43:14;98111.56;;;19.39;49.88
64876;BME280;51369;49.862;9.908;2023-03-19T14:45:47;98111.31;;;19.31;50.23
64876;BME280;51369;49.862;9.908;2023-03-19T14:54:30;98111.72;;;18.70;52.76
64876;BME280;51369;49.862;9.908;2023-03-19T14:57:05;98116.13;;;18.49;52.35
64876;BME280;51369;49.862;9.908;2023-03-19T14:59:38;98102.78;;;18.33;52.38
64876;BME280;51369;49.862;9.908;2023-03-19T15:02:07;98109.09;;;18.23;51.63